createdAt,value
2019-02-08T00:01:17.320Z,5.00
2019-02-08T00:03:48.540Z,4.77
2019-02-08T00:06:23.555Z,5.53
2019-02-08T00:08:57.363Z,4.80
2019-02-08T00:11:35.505Z,5.10
2019-02-08T00:14:08.476Z,4.10
2019-02-08T00:16:42.646Z,5.20
2019-02-08T00:19:15.761Z,5.00
2019-02-08T00:21:52.635Z,4.90
2019-02-08T00:24:23.868Z,5.25
2019-02-08T00:26:54.751Z,5.62
2019-02-08T00:29:25.440Z,5.00
2019-02-08T00:31:56.135Z,5.50
2019-02-08T00:34:26.828Z,5.47
2019-02-08T00:36:57.622Z,4.85
2019-02-08T00:39:28.291Z,5.30
2019-02-08T00:41:58.962Z,5.28
2019-02-08T00:44:29.840Z,5.90
2019-02-08T00:47:00.869Z,5.58
2019-02-08T00:49:31.626Z,5.75
2019-02-08T00:52:02.515Z,6.00
2019-02-08T00:54:40.393Z,4.77
2019-02-08T00:57:11.087Z,4.77
2019-02-08T00:59:41.876Z,5.93
2019-02-08T01:02:12.614Z,4.87
2019-02-08T01:04:43.285Z,5.20
2019-02-08T01:07:14.570Z,5.67
2019-02-08T01:09:45.270Z,5.57
2019-02-08T01:12:15.916Z,5.23
2019-02-08T01:14:46.928Z,6.03
2019-02-08T01:17:17.666Z,5.30
2019-02-08T01:19:48.509Z,6.10
2019-02-08T01:22:19.464Z,5.73
2019-02-08T01:24:50.153Z,5.50
2019-02-08T01:27:20.876Z,5.30
2019-02-08T01:29:51.618Z,6.80
2019-02-08T01:32:22.398Z,5.60
2019-02-08T01:34:53.195Z,6.30
2019-02-08T01:37:23.905Z,5.40
2019-02-08T01:39:54.676Z,5.90
2019-02-08T01:42:25.337Z,5.80
2019-02-08T01:44:56.040Z,5.80
2019-02-08T01:47:26.955Z,6.43
2019-02-08T01:49:57.821Z,6.00
2019-02-08T01:52:28.515Z,6.00
2019-02-08T01:55:00.661Z,5.63
2019-02-08T01:57:31.322Z,5.77
2019-02-08T02:00:02.111Z,5.10
2019-02-08T02:02:32.821Z,5.97
2019-02-08T02:05:03.642Z,5.93
2019-02-08T02:07:34.493Z,6.23
2019-02-08T02:10:07.323Z,6.60
2019-02-08T02:12:38.019Z,6.23
2019-02-08T02:15:08.919Z,5.90
2019-02-08T02:17:39.687Z,6.03
2019-02-08T02:20:11.532Z,5.50
2019-02-08T02:22:42.313Z,5.03
2019-02-08T02:25:14.214Z,6.33
2019-02-08T02:27:45.218Z,5.27
2019-02-08T02:30:22.781Z,5.67
2019-02-08T02:32:53.617Z,5.30
2019-02-08T02:35:24.735Z,5.77
2019-02-08T02:37:55.489Z,6.40
2019-02-08T02:40:26.264Z,5.77
2019-02-08T02:42:57.266Z,6.40
2019-02-08T02:45:35.552Z,5.83
2019-02-08T02:48:08.409Z,5.00
2019-02-08T02:50:39.268Z,6.17
2019-02-08T02:53:10.070Z,5.87
2019-02-08T02:55:40.998Z,6.13
2019-02-08T02:58:11.762Z,6.10
2019-02-08T03:00:47.250Z,5.97
2019-02-08T03:03:18.521Z,6.80
2019-02-08T03:05:49.362Z,6.67
2019-02-08T03:08:20.159Z,5.83
2019-02-08T03:10:50.723Z,6.30
2019-02-08T03:13:21.452Z,5.97
2019-02-08T03:15:52.115Z,6.03
2019-02-08T03:18:22.762Z,5.63
2019-02-08T03:20:53.531Z,6.23
2019-02-08T03:23:24.295Z,5.40
2019-02-08T03:25:55.002Z,5.60
2019-02-08T03:28:25.687Z,5.50
2019-02-08T03:30:58.410Z,5.80
2019-02-08T03:33:29.257Z,5.80
2019-02-08T03:36:00.012Z,6.37
2019-02-08T03:38:30.761Z,5.50
2019-02-08T03:41:01.481Z,6.23
2019-02-08T03:43:32.424Z,5.80
2019-02-08T03:46:03.313Z,4.93
2019-02-08T03:48:34.051Z,5.20
2019-02-08T03:51:04.828Z,5.93
2019-02-08T03:53:35.567Z,6.27
2019-02-08T03:56:06.356Z,4.97
2019-02-08T03:58:37.109Z,5.30
2019-02-08T04:01:08.889Z,5.27
2019-02-08T04:03:41.549Z,5.13
2019-02-08T04:06:12.373Z,4.60
2019-02-08T04:08:43.175Z,4.77
2019-02-08T04:11:14.042Z,4.90
2019-02-08T04:13:44.712Z,3.90
2019-02-08T04:16:15.742Z,5.57
2019-02-08T04:18:46.513Z,4.40
2019-02-08T04:21:17.264Z,4.07
2019-02-08T04:23:48.019Z,3.70
2019-02-08T04:26:18.932Z,3.73
2019-02-08T04:28:49.721Z,3.70
2019-02-08T04:31:20.470Z,4.30
2019-02-08T04:33:51.354Z,3.53
2019-02-08T04:36:22.112Z,3.63
2019-02-08T04:38:52.812Z,3.57
2019-02-08T04:41:23.517Z,4.20
2019-02-08T04:43:54.178Z,3.43
2019-02-08T04:46:24.827Z,3.53
2019-02-08T04:48:55.508Z,3.47
2019-02-08T04:51:26.269Z,3.73
2019-02-08T04:53:57.070Z,3.20
2019-02-08T04:56:28.506Z,3.47
2019-02-08T04:58:59.174Z,3.10
2019-02-08T05:01:29.957Z,4.23
2019-02-08T05:04:00.620Z,3.80
2019-02-08T05:06:31.305Z,2.60
2019-02-08T05:09:01.970Z,3.20
2019-02-08T05:11:32.683Z,4.07
2019-02-08T05:14:04.495Z,4.10
2019-02-08T05:16:35.196Z,3.57
2019-02-08T05:19:06.091Z,4.43
2019-02-08T05:21:36.735Z,3.70
2019-02-08T05:24:07.430Z,4.20
2019-02-08T05:26:38.311Z,4.60
2019-02-08T05:29:10.791Z,4.20
2019-02-08T05:31:41.524Z,4.77
2019-02-08T05:34:12.177Z,4.63
2019-02-08T05:36:44.397Z,3.57
2019-02-08T05:39:15.246Z,3.80
2019-02-08T05:41:45.900Z,4.50
2019-02-08T05:44:16.578Z,3.63
2019-02-08T05:46:47.161Z,3.77
2019-02-08T05:49:18.053Z,3.53
2019-02-08T05:51:48.915Z,3.33
2019-02-08T05:54:19.624Z,11.97
2019-02-08T05:56:50.771Z,4.23
2019-02-08T05:59:21.791Z,4.40
2019-02-08T06:01:52.416Z,2.93
2019-02-08T06:04:23.186Z,3.80
2019-02-08T06:06:53.908Z,3.77
2019-02-08T06:09:24.681Z,4.37
2019-02-08T06:11:55.336Z,4.17
2019-02-08T06:14:26.033Z,2.93
2019-02-08T06:16:56.733Z,3.53
2019-02-08T06:19:27.432Z,3.60
2019-02-08T06:21:58.103Z,3.60
2019-02-08T06:24:28.772Z,4.00
2019-02-08T06:26:59.908Z,3.70
2019-02-08T06:29:30.939Z,2.93
2019-02-08T06:32:01.824Z,3.17
2019-02-08T06:34:32.661Z,3.70
2019-02-08T06:37:03.448Z,2.80
2019-02-08T06:39:34.894Z,2.50
2019-02-08T06:42:07.372Z,3.90
2019-02-08T06:44:38.132Z,3.63
2019-02-08T06:47:08.998Z,3.20
2019-02-08T06:49:39.835Z,3.37
2019-02-08T06:52:12.124Z,3.00
2019-02-08T06:54:42.798Z,2.80
2019-02-08T06:57:25.225Z,2.50
2019-02-08T07:00:07.331Z,2.40
2019-02-08T07:03:00.387Z,2.40
2019-02-08T07:05:46.280Z,2.90
2019-02-08T07:08:42.125Z,2.90
2019-02-08T07:11:21.325Z,2.27
2019-02-08T07:14:04.231Z,2.60
2019-02-08T07:17:14.880Z,4.13
2019-02-08T07:20:27.673Z,3.10
2019-02-08T07:23:21.654Z,2.17
2019-02-08T07:26:18.880Z,2.90
2019-02-08T07:28:55.451Z,2.43
2019-02-08T07:32:00.727Z,2.40
2019-02-08T07:34:56.465Z,2.53
2019-02-08T07:37:45.277Z,2.37
2019-02-08T07:40:35.955Z,1.93
2019-02-08T07:43:25.809Z,2.10
2019-02-08T07:46:10.121Z,2.00
2019-02-08T07:48:54.142Z,2.10
2019-02-08T07:51:42.903Z,2.30
2019-02-08T07:54:32.165Z,2.37
2019-02-08T07:57:20.558Z,2.53
2019-02-08T08:00:20.703Z,2.47
2019-02-08T08:03:04.763Z,2.27
2019-02-08T08:06:00.753Z,2.33
2019-02-08T08:08:40.636Z,2.00
2019-02-08T08:11:29.571Z,2.60
2019-02-08T08:14:16.383Z,2.20
2019-02-08T08:16:56.833Z,3.10
2019-02-08T08:19:44.060Z,2.30
2019-02-08T08:22:32.294Z,2.40
2019-02-08T08:25:33.701Z,2.37
2019-02-08T08:28:15.516Z,2.07
2019-02-08T08:30:53.496Z,2.80
2019-02-08T08:33:32.287Z,2.30
2019-02-08T08:36:20.618Z,2.03
2019-02-08T08:39:44.894Z,2.10
2019-02-08T08:42:37.224Z,2.47
2019-02-08T08:45:21.504Z,2.97
2019-02-08T08:48:25.301Z,1.97
2019-02-08T08:51:36.109Z,2.53
2019-02-08T08:54:34.467Z,2.27
2019-02-08T08:57:34.574Z,2.57
2019-02-08T09:00:54.863Z,2.40
2019-02-08T09:04:04.165Z,3.00
2019-02-08T09:07:34.126Z,2.70
2019-02-08T09:10:43.435Z,2.60
2019-02-08T09:14:00.151Z,2.60
2019-02-08T09:17:00.360Z,2.80
2019-02-08T09:20:26.104Z,3.20
2019-02-08T09:23:37.162Z,2.95
2019-02-08T09:26:44.744Z,2.70
2019-02-08T09:29:43.516Z,3.20
2019-02-08T09:32:56.219Z,2.37
2019-02-08T09:36:12.505Z,2.67
2019-02-08T09:47:50.655Z,2.50
2019-02-08T09:50:57.248Z,3.23
2019-02-08T09:59:39.544Z,2.20
2019-02-08T10:02:47.539Z,2.53
2019-02-08T10:05:57.954Z,3.10
2019-02-08T10:09:34.460Z,2.80
2019-02-08T10:12:41.824Z,2.90
2019-02-08T10:15:44.363Z,2.90
2019-02-08T10:19:01.937Z,2.70
2019-02-08T10:22:12.096Z,3.40
2019-02-08T10:25:24.870Z,2.97
2019-02-08T10:28:34.463Z,2.77
2019-02-08T10:35:13.264Z,2.70
2019-02-08T10:38:21.269Z,2.67
2019-02-08T10:41:30.583Z,4.27
2019-02-08T10:44:48.059Z,3.03
2019-02-08T10:48:05.135Z,3.10
2019-02-08T10:50:58.537Z,3.50
2019-02-08T10:53:59.533Z,2.60
2019-02-08T10:57:13.873Z,2.73
2019-02-08T11:00:19.054Z,2.40
2019-02-08T11:03:24.864Z,2.90
2019-02-08T11:06:39.329Z,2.23
2019-02-08T11:09:54.475Z,4.20
2019-02-08T11:13:01.458Z,3.40
2019-02-08T11:16:15.492Z,2.50
2019-02-08T11:19:19.651Z,1.90
2019-02-08T11:21:55.772Z,2.43
2019-02-08T11:24:27.422Z,2.40
2019-02-08T11:27:00.243Z,2.30
2019-02-08T11:29:31.352Z,2.70
2019-02-08T11:32:02.420Z,2.23
2019-02-08T11:34:33.496Z,2.37
2019-02-08T11:37:04.529Z,2.60
2019-02-08T11:39:35.698Z,2.80
2019-02-08T11:42:08.758Z,2.80
2019-02-08T11:44:42.669Z,3.10
2019-02-08T11:47:16.370Z,2.50
2019-02-08T11:49:47.418Z,2.67
2019-02-08T11:52:18.121Z,2.40
2019-02-08T11:54:48.881Z,2.73
2019-02-08T11:57:20.081Z,2.20
2019-02-08T11:59:51.056Z,2.53
2019-02-08T12:02:21.892Z,2.53
2019-02-08T12:04:53.089Z,3.30
2019-02-08T12:07:24.298Z,2.73
2019-02-08T12:09:58.634Z,2.50
2019-02-08T12:12:29.392Z,2.90
2019-02-08T12:15:03.170Z,3.27
2019-02-08T12:17:34.318Z,2.97
2019-02-08T12:20:07.192Z,2.90
2019-02-08T12:22:39.746Z,2.90
2019-02-08T12:25:14.627Z,2.63
2019-02-08T12:27:54.039Z,2.73
2019-02-08T12:30:28.267Z,2.70
2019-02-08T12:33:05.572Z,3.03
2019-02-08T12:35:36.736Z,3.57
2019-02-08T12:38:07.771Z,3.17
2019-02-08T12:40:40.884Z,3.03
2019-02-08T12:43:12.032Z,3.17
2019-02-08T12:45:46.469Z,2.97
2019-02-08T12:48:17.488Z,2.77
2019-02-08T12:50:48.368Z,3.20
2019-02-08T12:53:19.055Z,2.77
2019-02-08T12:55:51.730Z,2.47
2019-02-08T12:58:22.863Z,2.70
2019-02-08T13:00:57.192Z,2.70
2019-02-08T13:03:38.921Z,3.17
2019-02-08T13:06:35.727Z,2.83
2019-02-08T13:09:10.872Z,3.07
2019-02-08T13:11:42.124Z,2.80
2019-02-08T13:14:12.884Z,2.70
2019-02-08T13:16:51.053Z,3.13
2019-02-08T13:19:45.102Z,2.77
2019-02-08T13:22:20.216Z,2.47
2019-02-08T13:25:06.067Z,2.67
2019-02-08T13:27:42.963Z,3.07
2019-02-08T13:30:20.527Z,2.90
2019-02-08T13:32:54.465Z,3.30
2019-02-08T13:35:25.398Z,2.70
2019-02-08T13:41:57.698Z,2.73
2019-02-08T13:44:33.620Z,3.47
2019-02-08T13:47:46.992Z,2.67
2019-02-08T13:51:22.422Z,4.00
2019-02-08T13:54:37.777Z,2.83
2019-02-08T13:57:13.523Z,2.80
2019-02-08T13:59:46.590Z,3.37
2019-02-08T14:02:21.457Z,3.20
2019-02-08T14:05:01.206Z,3.70
2019-02-08T14:07:37.185Z,3.97
2019-02-08T14:10:17.243Z,3.30
2019-02-08T14:12:50.997Z,3.27
2019-02-08T14:15:23.163Z,3.60
2019-02-08T14:18:00.474Z,4.00
2019-02-08T14:20:31.334Z,2.80
2019-02-08T14:23:03.072Z,3.50
2019-02-08T14:25:33.834Z,3.70
2019-02-08T14:28:04.994Z,3.60
2019-02-08T14:30:38.046Z,4.10
2019-02-08T14:33:11.625Z,3.50
2019-02-08T14:35:44.023Z,4.20
2019-02-08T14:38:21.947Z,3.80
2019-02-08T14:40:52.803Z,3.60
2019-02-08T14:43:25.356Z,4.10
2019-02-08T14:45:59.320Z,4.33
2019-02-08T14:48:32.166Z,3.80
2019-02-08T14:51:03.146Z,4.77
2019-02-08T14:53:34.223Z,3.77
2019-02-08T14:56:06.564Z,4.30
2019-02-08T14:58:37.861Z,4.90
2019-02-08T15:01:08.742Z,4.63
2019-02-08T15:03:40.232Z,4.53
2019-02-08T15:06:11.453Z,4.80
2019-02-08T15:08:42.519Z,4.43
2019-02-08T15:11:13.450Z,4.20
2019-02-08T15:13:50.667Z,4.30
2019-02-08T15:16:25.917Z,5.67
2019-02-08T15:18:56.826Z,5.20
2019-02-08T15:21:27.707Z,5.13
2019-02-08T15:24:00.687Z,4.63
2019-02-08T15:26:31.703Z,4.40
2019-02-08T15:29:02.962Z,4.17
2019-02-08T15:31:36.960Z,4.47
2019-02-08T15:34:12.397Z,3.93
2019-02-08T15:36:49.171Z,4.30
2019-02-08T15:39:18.341Z,4.47
2019-02-08T15:41:55.135Z,4.47
2019-02-08T15:44:28.732Z,3.97
2019-02-08T15:47:24.388Z,3.90
2019-02-08T15:49:56.138Z,3.80
2019-02-08T15:54:21.485Z,3.57
2019-02-08T15:55:28.662Z,3.73
2019-02-08T15:58:04.420Z,3.57
2019-02-08T16:00:59.860Z,4.17
2019-02-08T16:03:31.086Z,3.43
2019-02-08T16:06:03.414Z,5.33
2019-02-08T16:08:39.817Z,3.27
2019-02-08T16:11:10.721Z,4.53
2019-02-08T16:13:47.380Z,3.60
2019-02-08T16:16:18.371Z,3.20
2019-02-08T16:18:49.417Z,3.33
2019-02-08T16:21:29.916Z,3.87
2019-02-08T16:24:10.563Z,3.37
2019-02-08T16:26:44.623Z,3.23
2019-02-08T16:29:16.359Z,2.80
2019-02-08T16:31:49.920Z,3.83
2019-02-08T16:34:24.070Z,3.70
2019-02-08T16:37:03.100Z,2.83
2019-02-08T16:39:30.142Z,2.90
2019-02-08T16:42:03.496Z,2.90
2019-02-08T16:44:53.774Z,3.63
2019-02-08T16:47:27.506Z,2.93
2019-02-08T16:49:58.584Z,3.53
2019-02-08T16:52:33.932Z,3.57
2019-02-08T16:55:07.710Z,3.23
2019-02-08T16:57:47.438Z,2.70
2019-02-08T17:00:16.645Z,2.80
2019-02-08T17:02:52.383Z,3.10
2019-02-08T17:05:27.568Z,3.37
2019-02-08T17:08:03.571Z,2.93
2019-02-08T17:10:35.282Z,3.27
2019-02-08T17:13:14.126Z,2.70
2019-02-08T17:15:47.051Z,2.53
2019-02-08T17:18:22.095Z,2.90
2019-02-08T17:20:53.028Z,3.13
2019-02-08T17:23:40.337Z,2.70
2019-02-08T17:26:12.971Z,2.60
2019-02-08T17:28:44.026Z,2.97
2019-02-08T17:31:14.907Z,3.10
2019-02-08T17:33:45.714Z,2.57
2019-02-08T17:36:16.702Z,3.10
2019-02-08T17:38:47.694Z,2.20
2019-02-08T17:41:18.367Z,3.00
2019-02-08T17:43:53.063Z,3.23
2019-02-08T17:46:23.947Z,3.10
2019-02-08T17:48:54.575Z,3.03
2019-02-08T17:51:25.283Z,2.53
2019-02-08T17:53:55.845Z,3.05
2019-02-08T17:56:26.529Z,3.10
2019-02-08T17:58:57.208Z,3.20
2019-02-08T18:01:30.744Z,3.10
2019-02-08T18:04:04.269Z,3.37
2019-02-08T18:06:35.201Z,3.40
2019-02-08T18:09:09.604Z,3.30
2019-02-08T18:11:40.440Z,3.30
2019-02-08T18:14:11.239Z,3.10
2019-02-08T18:16:41.954Z,3.47
2019-02-08T18:19:12.767Z,3.50
2019-02-08T18:21:43.410Z,3.00
2019-02-08T18:24:14.107Z,3.30
2019-02-08T18:26:44.814Z,3.30
2019-02-08T18:29:15.545Z,2.98
2019-02-08T18:31:46.105Z,3.60
2019-02-08T18:34:16.982Z,3.30
2019-02-08T18:36:47.529Z,3.50
2019-02-08T18:39:18.247Z,3.30
2019-02-08T18:41:48.996Z,3.27
2019-02-08T18:44:20.009Z,3.37
2019-02-08T18:46:51.218Z,3.55
2019-02-08T18:49:21.945Z,3.10
2019-02-08T18:51:52.867Z,3.15
2019-02-08T18:54:23.804Z,3.20
2019-02-08T18:57:00.704Z,3.20
2019-02-08T18:59:31.646Z,3.20
2019-02-08T19:02:05.872Z,3.20
2019-02-08T19:04:54.989Z,3.33
2019-02-08T19:08:06.910Z,3.30
2019-02-08T19:10:38.833Z,3.20
2019-02-08T19:13:09.605Z,3.50
2019-02-08T19:15:41.066Z,2.98
2019-02-08T19:18:11.954Z,3.27
2019-02-08T19:20:45.624Z,3.20
2019-02-08T19:23:21.065Z,3.20
2019-02-08T19:25:52.145Z,3.30
2019-02-08T19:28:26.544Z,3.10
2019-02-08T19:30:57.928Z,3.52
2019-02-08T19:33:31.848Z,3.00
2019-02-08T19:36:03.217Z,3.40
2019-02-08T19:38:34.020Z,3.33
2019-02-08T19:41:06.211Z,3.40
2019-02-08T19:43:37.980Z,2.90
2019-02-08T19:46:09.334Z,2.70
2019-02-08T19:48:40.151Z,2.80
2019-02-08T19:51:11.042Z,3.00
2019-02-08T19:53:42.300Z,3.00
2019-02-08T19:56:13.368Z,3.30
2019-02-08T19:59:05.938Z,2.98
2019-02-08T20:01:45.520Z,2.60
2019-02-08T20:04:18.165Z,2.70
2019-02-08T20:06:52.457Z,2.70
2019-02-08T20:09:23.812Z,2.50
2019-02-08T20:11:55.557Z,2.75
2019-02-08T20:14:29.014Z,2.50
2019-02-08T20:16:59.804Z,2.47
2019-02-08T20:19:31.157Z,2.67
2019-02-08T20:22:02.276Z,2.60
2019-02-08T20:24:34.729Z,2.80
2019-02-08T20:27:05.982Z,2.80
2019-02-08T20:29:37.517Z,2.60
2019-02-08T20:32:08.836Z,2.80
2019-02-08T20:34:41.336Z,2.22
2019-02-08T20:37:20.750Z,2.45
2019-02-08T20:39:51.857Z,2.52
2019-02-08T20:42:23.228Z,2.65
2019-02-08T20:44:54.370Z,2.40
2019-02-08T20:47:27.494Z,2.40
2019-02-08T20:50:01.502Z,2.40
2019-02-08T20:52:34.073Z,2.60
2019-02-08T20:55:06.861Z,2.30
2019-02-08T20:57:37.818Z,2.90
2019-02-08T21:00:20.773Z,2.40
2019-02-08T21:02:55.667Z,2.40
2019-02-08T21:05:29.292Z,2.40
2019-02-08T21:08:05.328Z,2.30
2019-02-08T21:11:00.592Z,3.15
2019-02-08T21:13:35.550Z,2.45
2019-02-08T21:16:09.278Z,2.47
2019-02-08T21:18:43.099Z,2.20
2019-02-08T21:21:16.434Z,2.60
2019-02-08T21:23:47.200Z,2.30
2019-02-08T21:26:18.028Z,2.27
2019-02-08T21:28:49.002Z,2.62
2019-02-08T21:31:19.703Z,2.70
2019-02-08T21:33:50.696Z,2.33
2019-02-08T21:36:21.810Z,2.55
2019-02-08T21:38:52.512Z,2.37
2019-02-08T21:41:23.518Z,2.65
2019-02-08T21:43:54.424Z,2.40
2019-02-08T21:46:50.844Z,2.33
2019-02-08T21:49:26.791Z,2.85
2019-02-08T21:51:58.013Z,3.00
2019-02-08T21:54:29.057Z,2.70
2019-02-08T21:57:00.314Z,3.00
2019-02-08T21:59:31.607Z,2.60
2019-02-08T22:02:02.384Z,2.60
2019-02-08T22:04:33.100Z,2.60
2019-02-08T22:07:03.987Z,2.90
2019-02-08T22:09:35.933Z,2.70
2019-02-08T22:12:08.089Z,2.80
2019-02-08T22:14:40.983Z,2.67
2019-02-08T22:17:22.321Z,2.80
2019-02-08T22:19:52.961Z,2.70
2019-02-08T22:22:30.685Z,2.98
2019-02-08T22:25:11.529Z,2.60
2019-02-08T22:27:45.844Z,2.30
2019-02-08T22:30:21.918Z,2.80
2019-02-08T22:32:54.324Z,2.77
2019-02-08T22:35:26.447Z,2.60
2019-02-08T22:37:57.614Z,2.70
2019-02-08T22:40:30.743Z,3.00
2019-02-08T22:43:01.821Z,3.10
2019-02-08T22:45:44.005Z,2.50
2019-02-08T22:48:11.441Z,2.70
2019-02-08T22:50:42.399Z,2.40
2019-02-08T22:53:13.240Z,2.50
2019-02-08T22:55:47.125Z,2.70
2019-02-08T22:58:18.002Z,2.70
2019-02-08T23:01:25.250Z,2.60
2019-02-08T23:04:00.441Z,3.10
2019-02-08T23:06:32.063Z,2.77
2019-02-08T23:09:07.160Z,2.92
2019-02-08T23:11:46.559Z,3.00
2019-02-08T23:14:17.554Z,2.70
2019-02-08T23:16:48.367Z,2.95
2019-02-08T23:19:19.104Z,2.70
2019-02-08T23:21:49.882Z,2.60
2019-02-08T23:24:21.900Z,2.50
2019-02-08T23:26:53.630Z,3.00
2019-02-08T23:29:30.147Z,2.98
2019-02-08T23:32:00.947Z,3.25
2019-02-08T23:34:33.625Z,3.20
2019-02-08T23:37:04.732Z,2.90
2019-02-08T23:39:35.460Z,2.65
2019-02-08T23:42:06.692Z,2.40
2019-02-08T23:44:37.528Z,2.70
2019-02-08T23:47:11.371Z,2.43
2019-02-08T23:49:42.352Z,2.87
2019-02-08T23:52:13.107Z,2.52
2019-02-08T23:54:43.767Z,2.80
2019-02-08T23:57:14.502Z,3.47
2019-02-08T23:59:45.473Z,2.62
